Time;durP1;ratioP1;P1;durP2;ratioP2;P2;SDS_P1;SDS_P2;PMS_P1;PMS_P2;Temp;Humidity;BMP_temperature;BMP_pressure;BME280_temperature;BME280_humidity;BME280_pressure;Samples;Min_cycle;Max_cycle;Signal;HPM_P1;HPM_P2
2022/04/24 00:03:06;;;;;;;15.82;7.40;;;12.30;54.00;;;;;;9180280;19;20033;-72
2022/04/24 00:06:13;;;;;;;12.75;6.97;;;12.30;54.10;;;;;;9178852;19;20022;-71
2022/04/24 00:09:19;;;;;;;10.52;7.00;;;12.30;54.10;;;;;;9174611;19;20360;-71
2022/04/24 00:12:24;;;;;;;12.18;6.97;;;12.20;54.30;;;;;;9178245;19;20497;-72
2022/04/24 00:15:35;;;;;;;13.38;7.20;;;12.20;54.40;;;;;;9179498;19;20007;-71
2022/04/24 00:18:41;;;;;;;13.73;7.50;;;12.20;54.50;;;;;;9180910;19;20014;-71
2022/04/24 00:21:48;;;;;;;13.95;7.00;;;12.20;54.60;;;;;;9179035;19;20383;-72
2022/04/24 00:24:53;;;;;;;11.63;6.88;;;12.10;54.60;;;;;;9179776;19;20022;-74
2022/04/24 00:28:02;;;;;;;11.20;7.53;;;12.20;54.70;;;;;;9178677;19;20018;-72
2022/04/24 00:31:10;;;;;;;11.00;6.53;;;12.10;54.70;;;;;;9185350;19;20021;-72
2022/04/24 00:34:16;;;;;;;15.30;8.18;;;12.10;54.90;;;;;;9187728;19;20025;-70
2022/04/24 00:37:22;;;;;;;13.35;7.40;;;12.00;54.90;;;;;;9188541;19;20423;-71
2022/04/24 00:40:27;;;;;;;12.95;7.35;;;12.00;55.00;;;;;;9188534;19;20081;-71
2022/04/24 00:43:35;;;;;;;10.85;7.13;;;12.00;55.10;;;;;;9189305;19;20018;-71
2022/04/24 00:47:05;;;;;;;11.13;7.25;;;12.00;55.10;;;;;;9188329;19;20019;-71
2022/04/24 00:50:15;;;;;;;10.85;7.00;;;11.90;55.30;;;;;;9186989;19;20015;-72
2022/04/24 00:53:22;;;;;;;13.20;7.03;;;11.90;55.30;;;;;;9186996;19;20359;-71
2022/04/24 00:56:34;;;;;;;11.93;7.28;;;11.80;55.30;;;;;;9186475;19;20048;-71
2022/04/24 00:59:40;;;;;;;10.32;6.38;;;11.80;56.00;;;;;;9188222;19;20015;-71
2022/04/24 01:02:47;;;;;;;12.82;6.63;;;11.70;55.50;;;;;;9184021;19;20049;-71
2022/04/24 01:05:58;;;;;;;11.18;6.50;;;11.70;55.70;;;;;;9184508;19;20018;-71
2022/04/24 01:09:11;;;;;;;11.90;6.78;;;11.70;55.80;;;;;;9180633;19;20065;-72
2022/04/24 01:12:16;;;;;;;8.57;5.70;;;11.60;55.90;;;;;;9186554;19;20022;-71
2022/04/24 01:15:22;;;;;;;8.88;6.55;;;11.60;55.60;;;;;;9186928;19;20499;-71
2022/04/24 01:18:30;;;;;;;11.93;6.70;;;11.60;55.80;;;;;;9188787;19;20024;-71
2022/04/24 01:21:44;;;;;;;8.65;6.10;;;11.50;55.90;;;;;;9190716;19;20014;-71
2022/04/24 01:24:49;;;;;;;12.48;6.78;;;11.50;56.00;;;;;;9189266;19;20023;-71
2022/04/24 01:27:54;;;;;;;8.93;5.90;;;11.50;56.00;;;;;;9189479;19;20014;-73
2022/04/24 01:31:00;;;;;;;13.77;6.68;;;11.40;56.00;;;;;;9189433;19;20395;-71
2022/04/24 01:34:08;;;;;;;10.77;5.45;;;11.40;56.10;;;;;;9187456;19;20030;-71
2022/04/24 01:37:18;;;;;;;9.40;5.85;;;11.30;56.20;;;;;;9187738;19;20029;-71
2022/04/24 01:40:26;;;;;;;11.00;5.78;;;11.30;56.30;;;;;;9187261;19;20033;-71
2022/04/24 01:43:31;;;;;;;12.95;5.63;;;11.20;56.30;;;;;;9187372;19;20603;-71
2022/04/24 01:46:38;;;;;;;10.40;4.93;;;11.20;56.40;;;;;;9186946;19;20015;-71
2022/04/24 01:49:46;;;;;;;11.30;5.50;;;11.20;56.50;;;;;;9186536;19;20018;-72
2022/04/24 01:52:53;;;;;;;8.30;5.43;;;11.10;56.40;;;;;;9184392;19;20018;-72
2022/04/24 01:56:00;;;;;;;7.13;5.80;;;11.10;56.60;;;;;;9186100;19;20352;-71
2022/04/24 01:59:06;;;;;;;10.60;5.38;;;11.10;56.60;;;;;;9186070;19;20021;-71
2022/04/24 02:02:11;;;;;;;9.40;5.45;;;11.00;56.60;;;;;;9184733;19;20011;-72
2022/04/24 02:05:20;;;;;;;11.18;5.75;;;11.00;56.70;;;;;;9185824;19;20018;-72
2022/04/24 02:08:28;;;;;;;7.75;4.70;;;11.00;56.70;;;;;;9185199;19;20491;-72
2022/04/24 02:11:33;;;;;;;8.48;4.80;;;11.00;56.90;;;;;;9186053;19;20014;-71
2022/04/24 02:14:38;;;;;;;8.15;5.70;;;10.90;56.80;;;;;;9185720;19;20409;-72
2022/04/24 02:17:44;;;;;;;13.30;5.90;;;10.90;56.90;;;;;;9185077;19;20010;-71
2022/04/24 02:20:49;;;;;;;9.80;5.40;;;10.90;56.90;;;;;;9184491;19;20017;-71
2022/04/24 02:23:59;;;;;;;8.52;5.50;;;10.80;56.90;;;;;;9187196;19;20413;-71
2022/04/24 02:27:04;;;;;;;9.32;4.50;;;10.80;57.00;;;;;;9186987;19;20011;-71
2022/04/24 02:30:13;;;;;;;9.32;5.03;;;10.80;57.00;;;;;;9186656;19;20048;-71
2022/04/24 02:33:18;;;;;;;7.88;5.35;;;10.70;57.10;;;;;;9183310;19;20022;-71
2022/04/24 02:36:23;;;;;;;7.35;5.13;;;10.70;57.10;;;;;;9184459;19;20113;-71
2022/04/24 02:39:30;;;;;;;12.88;5.05;;;10.70;57.10;;;;;;9186600;19;20010;-72
2022/04/24 02:42:36;;;;;;;8.30;4.88;;;10.70;57.20;;;;;;9184675;19;20021;-71
2022/04/24 02:45:42;;;;;;;11.63;5.57;;;10.70;57.20;;;;;;9184401;19;20014;-71
2022/04/24 02:48:47;;;;;;;8.18;5.30;;;10.60;57.20;;;;;;9185032;19;20022;-71
2022/04/24 02:51:52;;;;;;;7.63;4.97;;;10.60;57.20;;;;;;9181704;19;20086;-70
2022/04/24 02:55:00;;;;;;;10.73;4.70;;;10.60;57.20;;;;;;9185077;19;20011;-72
2022/04/24 02:58:06;;;;;;;7.68;5.10;;;10.50;57.30;;;;;;9183789;19;20018;-70
2022/04/24 03:01:11;;;;;;;5.70;4.50;;;10.50;57.30;;;;;;9185486;19;20011;-71
2022/04/24 03:04:16;;;;;;;6.43;4.53;;;10.50;57.30;;;;;;9184312;19;20478;-71
2022/04/24 03:07:21;;;;;;;8.20;4.72;;;10.40;57.30;;;;;;9182882;19;20530;-71
2022/04/24 03:10:30;;;;;;;7.57;4.13;;;10.40;57.30;;;;;;9180138;19;20014;-71
2022/04/24 03:13:35;;;;;;;9.93;4.32;;;10.40;57.40;;;;;;9184025;19;20006;-71
2022/04/24 03:16:43;;;;;;;7.38;4.13;;;10.30;57.30;;;;;;9182165;19;20014;-71
2022/04/24 03:19:51;;;;;;;7.40;4.30;;;10.30;57.30;;;;;;9181809;19;20029;-73
2022/04/24 03:22:56;;;;;;;7.13;4.57;;;10.30;57.30;;;;;;9185230;19;20483;-71
2022/04/24 03:26:04;;;;;;;9.82;4.53;;;10.30;57.40;;;;;;9183862;19;20492;-71
2022/04/24 03:29:15;;;;;;;5.68;3.83;;;10.30;57.40;;;;;;9184285;19;20017;-72
2022/04/24 03:32:20;;;;;;;8.18;3.92;;;10.20;57.40;;;;;;9183213;19;20010;-71
2022/04/24 03:35:27;;;;;;;6.53;4.30;;;10.20;57.40;;;;;;9182915;19;20468;-72
2022/04/24 03:38:32;;;;;;;6.60;4.20;;;10.20;57.40;;;;;;9183787;19;20360;-72
2022/04/24 03:41:41;;;;;;;6.43;4.60;;;10.10;57.40;;;;;;9181177;19;20010;-71
2022/04/24 03:44:46;;;;;;;5.90;4.25;;;10.10;57.50;;;;;;9181222;19;20465;-71
2022/04/24 03:47:51;;;;;;;9.15;4.57;;;10.10;57.50;;;;;;9181930;19;20026;-72
2022/04/24 03:50:57;;;;;;;8.70;4.72;;;10.10;57.50;;;;;;9183983;19;20010;-70
2022/04/24 03:54:06;;;;;;;7.18;4.53;;;10.00;57.50;;;;;;9181373;19;20047;-71
2022/04/24 03:57:16;;;;;;;6.80;4.20;;;10.00;57.60;;;;;;9181154;19;20056;-70
2022/04/24 04:00:22;;;;;;;8.65;4.50;;;9.90;57.60;;;;;;9181232;19;20111;-71
2022/04/24 04:03:27;;;;;;;6.57;4.13;;;9.90;57.60;;;;;;9180895;19;20527;-72
2022/04/24 04:06:32;;;;;;;10.23;4.30;;;9.90;57.60;;;;;;9182740;19;20025;-72
2022/04/24 04:09:41;;;;;;;9.55;4.68;;;9.80;57.70;;;;;;9175403;19;20078;-71
2022/04/24 04:12:52;;;;;;;8.27;4.70;;;9.80;57.70;;;;;;9180611;19;20021;-70
2022/04/24 04:15:58;;;;;;;8.68;4.70;;;9.80;57.80;;;;;;9181393;19;20338;-71
2022/04/24 04:19:04;;;;;;;33.03;5.72;;;9.80;57.70;;;;;;9182908;19;20014;-70
2022/04/24 04:22:09;;;;;;;7.78;4.38;;;9.80;57.80;;;;;;9181999;19;20021;-72
2022/04/24 04:25:18;;;;;;;10.18;4.85;;;9.70;57.80;;;;;;9183060;19;20022;-72
2022/04/24 04:28:26;;;;;;;6.05;4.35;;;9.70;57.90;;;;;;9180101;19;20021;-71
2022/04/24 04:31:31;;;;;;;8.75;4.10;;;9.70;58.00;;;;;;9182627;19;20017;-70
2022/04/24 04:34:38;;;;;;;6.95;3.85;;;9.60;57.90;;;;;;9179357;19;20375;-72
2022/04/24 04:37:44;;;;;;;7.55;4.88;;;9.60;57.90;;;;;;9181713;19;20015;-71
2022/04/24 04:40:50;;;;;;;6.53;4.30;;;9.60;58.00;;;;;;9179300;19;20014;-71
2022/04/24 04:44:00;;;;;;;6.13;4.35;;;9.50;58.00;;;;;;9179884;19;20015;-71
2022/04/24 04:47:10;;;;;;;7.03;4.20;;;9.50;58.10;;;;;;9181439;19;20340;-71
2022/04/24 04:50:19;;;;;;;7.07;4.18;;;9.50;58.20;;;;;;9180066;19;20022;-71
2022/04/24 04:53:25;;;;;;;6.50;4.18;;;9.40;58.10;;;;;;9180612;19;20024;-70
2022/04/24 04:56:31;;;;;;;15.52;4.78;;;9.40;58.20;;;;;;9179072;19;20010;-71
2022/04/24 04:59:38;;;;;;;6.90;4.35;;;9.40;58.20;;;;;;9182390;19;20030;-71
2022/04/24 05:02:46;;;;;;;5.55;3.83;;;9.40;58.40;;;;;;9180705;19;20368;-71
2022/04/24 05:05:51;;;;;;;7.13;4.40;;;9.40;58.30;;;;;;9178397;19;20022;-71
2022/04/24 05:08:56;;;;;;;9.27;4.30;;;9.30;58.30;;;;;;9174117;19;20345;-71
2022/04/24 05:12:01;;;;;;;7.50;3.90;;;9.30;58.40;;;;;;9179049;19;20010;-71
2022/04/24 05:15:12;;;;;;;7.07;4.18;;;9.30;58.40;;;;;;9179655;19;20014;-71
2022/04/24 05:18:18;;;;;;;10.20;4.55;;;9.30;58.50;;;;;;9189160;19;20018;-73
2022/04/24 05:21:24;;;;;;;5.25;3.88;;;9.20;58.50;;;;;;9187659;19;20018;-71
2022/04/24 05:24:29;;;;;;;7.20;3.90;;;9.30;58.50;;;;;;9189211;19;20451;-70
2022/04/24 05:27:34;;;;;;;9.48;3.97;;;9.30;58.60;;;;;;9189346;19;20018;-70
2022/04/24 05:30:41;;;;;;;8.45;4.50;;;9.30;58.70;;;;;;9186968;19;20027;-70
2022/04/24 05:33:46;;;;;;;5.05;3.80;;;9.30;58.70;;;;;;9186617;19;20456;-71
2022/04/24 05:36:52;;;;;;;6.68;4.07;;;9.30;58.70;;;;;;9188192;19;20026;-71
2022/04/24 05:40:01;;;;;;;6.75;3.85;;;9.30;58.80;;;;;;9188805;19;20044;-71
2022/04/24 05:43:06;;;;;;;5.82;3.90;;;9.30;58.80;;;;;;9186840;19;20041;-71
2022/04/24 05:46:14;;;;;;;7.88;4.30;;;9.30;58.80;;;;;;9187907;19;20468;-71
2022/04/24 05:49:20;;;;;;;5.03;3.92;;;9.40;58.90;;;;;;9187040;19;20021;-72
2022/04/24 05:52:25;;;;;;;6.22;4.00;;;9.40;58.90;;;;;;9186372;19;20011;-71
2022/04/24 05:55:30;;;;;;;9.77;3.78;;;9.50;58.90;;;;;;9183644;19;20017;-72
2022/04/24 05:58:35;;;;;;;10.68;3.80;;;9.60;58.90;;;;;;9188399;19;20018;-71
2022/04/24 06:01:43;;;;;;;6.75;3.85;;;9.70;59.00;;;;;;9185354;19;20056;-71
2022/04/24 06:04:48;;;;;;;6.30;3.70;;;9.80;59.00;;;;;;9186391;19;20506;-70
2022/04/24 06:07:54;;;;;;;11.63;3.50;;;9.80;58.90;;;;;;9186729;19;20471;-71
2022/04/24 06:11:00;;;;;;;6.13;3.63;;;9.90;58.90;;;;;;9183732;19;20014;-71
2022/04/24 06:14:05;;;;;;;5.63;3.85;;;10.00;58.90;;;;;;9184301;19;20093;-71
2022/04/24 06:17:13;;;;;;;10.48;3.80;;;10.10;58.90;;;;;;9186008;19;20342;-71
2022/04/24 06:20:18;;;;;;;8.20;4.00;;;10.20;59.00;;;;;;9186883;19;20014;-72
2022/04/24 06:23:24;;;;;;;5.53;3.90;;;10.30;59.00;;;;;;9185645;19;20033;-70
2022/04/24 06:26:31;;;;;;;12.02;4.20;;;10.40;59.00;;;;;;9186736;19;20492;-70
2022/04/24 06:29:36;;;;;;;5.80;3.90;;;10.50;58.90;;;;;;9186113;19;20018;-71
2022/04/24 06:32:44;;;;;;;6.82;3.70;;;10.60;58.80;;;;;;9185180;19;20014;-71
2022/04/24 06:35:49;;;;;;;5.32;3.45;;;10.70;58.80;;;;;;9183537;19;20010;-71
2022/04/24 06:39:00;;;;;;;6.75;4.05;;;10.80;58.70;;;;;;9186828;19;20019;-71
2022/04/24 06:42:05;;;;;;;4.47;3.28;;;10.90;58.70;;;;;;9185114;19;20617;-70
2022/04/24 06:45:12;;;;;;;5.40;3.67;;;11.00;58.70;;;;;;9184198;19;20006;-70
2022/04/24 06:48:20;;;;;;;5.90;3.90;;;11.10;58.70;;;;;;9186045;19;20039;-71
2022/04/24 06:51:26;;;;;;;6.50;3.97;;;11.30;58.70;;;;;;9183498;19;20006;-72
2022/04/24 06:54:32;;;;;;;14.18;3.80;;;11.40;58.60;;;;;;9183318;19;20025;-71
2022/04/24 06:57:40;;;;;;;4.63;3.45;;;11.50;58.50;;;;;;9185552;19;20010;-71
2022/04/24 07:00:46;;;;;;;8.43;3.60;;;11.60;58.50;;;;;;9179827;19;20022;-71
2022/04/24 07:04:14;;;;;;;6.78;3.42;;;11.70;58.50;;;;;;9176952;19;20055;-71
2022/04/24 07:07:19;;;;;;;9.02;3.17;;;11.80;58.30;;;;;;9177047;19;20029;-70
2022/04/24 07:10:24;;;;;;;6.65;4.40;;;12.00;58.20;;;;;;9172309;19;20345;-70
2022/04/24 07:13:36;;;;;;;9.02;3.40;;;12.00;58.20;;;;;;9177454;19;20387;-70
2022/04/24 07:16:41;;;;;;;6.93;3.30;;;12.20;58.20;;;;;;9169574;19;20520;-71
2022/04/24 07:19:49;;;;;;;5.00;3.40;;;12.30;58.10;;;;;;9173074;19;20025;-71
2022/04/24 07:22:57;;;;;;;6.95;3.80;;;12.30;58.50;;;;;;9169920;19;20022;-71
2022/04/24 07:26:02;;;;;;;9.35;3.97;;;12.40;57.90;;;;;;9171571;19;20014;-71
2022/04/24 07:29:07;;;;;;;9.68;4.05;;;12.50;57.90;;;;;;9173318;19;20043;-71
2022/04/24 07:32:13;;;;;;;5.93;3.33;;;12.60;57.90;;;;;;9176752;19;20011;-71
2022/04/24 07:35:25;;;;;;;8.52;3.53;;;12.70;57.90;;;;;;9177214;19;20018;-71
2022/04/24 07:38:30;;;;;;;8.43;4.20;;;12.80;57.80;;;;;;9178017;19;20010;-71
2022/04/24 07:41:35;;;;;;;8.43;4.13;;;12.90;57.80;;;;;;9183058;19;20011;-71
2022/04/24 07:44:40;;;;;;;6.13;3.95;;;13.00;57.60;;;;;;9182589;19;20014;-70
2022/04/24 07:47:46;;;;;;;6.57;4.03;;;13.10;57.50;;;;;;9182259;19;20042;-70
2022/04/24 07:50:54;;;;;;;6.35;3.95;;;13.30;57.40;;;;;;9182651;19;20365;-70
2022/04/24 07:53:59;;;;;;;8.35;3.78;;;13.40;57.30;;;;;;9182399;19;20026;-70
2022/04/24 07:57:04;;;;;;;8.00;3.75;;;13.50;57.30;;;;;;9179535;19;20011;-72
2022/04/24 08:00:14;;;;;;;12.73;3.88;;;13.60;57.30;;;;;;9180421;19;20010;-71
2022/04/24 08:03:21;;;;;;;7.97;4.18;;;13.70;57.10;;;;;;9180356;19;20017;-71
2022/04/24 08:06:29;;;;;;;6.03;3.75;;;13.90;57.10;;;;;;9181383;19;20011;-71
2022/04/24 08:09:34;;;;;;;7.70;5.03;;;14.00;56.90;;;;;;9177587;19;20017;-71
2022/04/24 08:12:39;;;;;;;7.35;3.97;;;14.20;56.90;;;;;;9182839;19;20364;-70
2022/04/24 08:15:45;;;;;;;5.53;3.72;;;14.30;56.70;;;;;;9179869;19;20018;-70
2022/04/24 08:18:50;;;;;;;7.57;3.80;;;14.40;56.60;;;;;;9181320;19;20018;-70
2022/04/24 08:21:58;;;;;;;10.13;4.32;;;14.50;56.50;;;;;;9182680;19;20070;-71
2022/04/24 08:25:02;;;;;;;7.38;3.53;;;14.70;56.40;;;;;;9182691;19;20011;-71
2022/04/24 08:28:10;;;;;;;10.30;4.25;;;14.80;56.30;;;;;;9182052;19;20025;-71
2022/04/24 08:31:17;;;;;;;9.27;4.13;;;14.90;56.20;;;;;;9180150;19;20014;-71
2022/04/24 08:34:24;;;;;;;8.45;4.25;;;15.10;56.10;;;;;;9181861;19;20014;-71
2022/04/24 08:37:31;;;;;;;8.60;3.63;;;15.20;55.90;;;;;;9181741;19;20037;-71
2022/04/24 08:40:37;;;;;;;6.57;4.03;;;15.30;55.90;;;;;;9180037;19;20017;-70
2022/04/24 08:43:44;;;;;;;7.38;3.75;;;15.50;55.80;;;;;;9181592;19;20010;-71
2022/04/24 08:46:49;;;;;;;10.13;4.70;;;15.60;55.60;;;;;;9179765;19;20019;-70
2022/04/24 08:49:58;;;;;;;8.02;3.70;;;15.80;55.60;;;;;;9182194;19;20387;-71
2022/04/24 08:53:06;;;;;;;6.78;4.13;;;15.90;55.40;;;;;;9189658;19;20486;-70
2022/04/24 08:56:11;;;;;;;8.05;3.80;;;16.10;55.30;;;;;;9186005;19;20368;-71
2022/04/24 08:59:16;;;;;;;5.47;3.80;;;16.30;55.20;;;;;;9190657;19;20019;-70
2022/04/24 09:02:21;;;;;;;14.18;4.03;;;16.40;55.00;;;;;;9190661;19;20017;-70
2022/04/24 09:05:27;;;;;;;5.60;3.35;;;16.60;54.90;;;;;;9184070;19;20014;-71
2022/04/24 09:08:35;;;;;;;7.45;3.85;;;16.70;54.70;;;;;;9179007;19;20423;-71
2022/04/24 09:12:11;;;;;;;4.97;3.53;;;16.80;54.40;;;;;;9184676;19;20094;-72
2022/04/24 09:15:21;;;;;;;4.53;3.38;;;16.90;54.20;;;;;;9181748;19;20499;-71
2022/04/24 09:18:39;;;;;;;5.50;3.88;;;17.00;54.20;;;;;;9181113;19;20022;-69
2022/04/24 09:21:44;;;;;;;8.35;3.63;;;17.10;54.00;;;;;;9184572;19;20018;-69
2022/04/24 09:24:55;;;;;;;9.43;4.07;;;17.20;54.10;;;;;;9184369;19;20021;-73
2022/04/24 09:28:00;;;;;;;10.93;4.65;;;17.30;53.90;;;;;;9183089;19;20010;-71
2022/04/24 09:31:05;;;;;;;6.38;3.97;;;17.50;54.00;;;;;;9180697;19;20372;-69
2022/04/24 09:34:11;;;;;;;6.00;3.80;;;17.60;53.70;;;;;;9182195;19;20018;-71
2022/04/24 09:37:16;;;;;;;4.82;3.65;;;17.70;53.50;;;;;;9180540;19;20537;-71
2022/04/24 09:40:24;;;;;;;7.07;3.40;;;17.90;53.40;;;;;;9184253;19;20025;-70
2022/04/24 09:43:29;;;;;;;8.70;3.67;;;18.00;53.20;;;;;;9181834;19;20033;-69
2022/04/24 09:46:34;;;;;;;14.50;3.78;;;18.20;53.20;;;;;;9182810;19;20011;-71
2022/04/24 09:49:40;;;;;;;7.50;3.60;;;18.30;53.10;;;;;;9181740;19;20056;-69
2022/04/24 09:52:51;;;;;;;5.85;3.67;;;18.40;52.80;;;;;;9182006;19;20018;-71
2022/04/24 09:56:02;;;;;;;5.35;3.33;;;18.50;52.50;;;;;;9179244;19;20499;-70
2022/04/24 09:59:08;;;;;;;6.90;3.25;;;18.60;52.30;;;;;;9179216;19;20023;-70
2022/04/24 10:02:14;;;;;;;5.15;3.10;;;18.70;52.40;;;;;;9181054;19;20010;-70
2022/04/24 10:05:20;;;;;;;10.05;3.70;;;18.70;52.20;;;;;;9179689;19;20022;-70
2022/04/24 10:08:26;;;;;;;9.93;3.63;;;18.80;52.10;;;;;;9177120;19;20025;-71
2022/04/24 10:11:34;;;;;;;12.80;3.05;;;18.90;52.00;;;;;;9180380;19;20015;-69
2022/04/24 10:14:45;;;;;;;8.77;3.45;;;18.90;51.80;;;;;;9179056;19;20018;-70
2022/04/24 10:18:16;;;;;;;7.18;3.40;;;19.00;51.60;;;;;;9174413;19;20014;-72
2022/04/24 10:21:39;;;;;;;5.13;3.20;;;19.10;51.30;;;;;;9178515;19;20048;-70
2022/04/24 10:24:47;;;;;;;8.82;3.58;;;19.10;51.30;;;;;;9181133;19;20056;-71
2022/04/24 10:27:54;;;;;;;13.57;3.58;;;19.20;51.40;;;;;;9178536;19;20019;-70
2022/04/24 10:31:01;;;;;;;10.68;3.60;;;19.20;51.30;;;;;;9178276;19;20018;-71
2022/04/24 10:34:08;;;;;;;9.57;3.47;;;19.30;51.20;;;;;;9180012;19;20022;-71
2022/04/24 10:37:13;;;;;;;5.80;3.30;;;19.40;51.00;;;;;;9175993;19;20029;-69
2022/04/24 10:40:21;;;;;;;11.98;3.42;;;19.40;50.80;;;;;;9179449;19;20025;-69
2022/04/24 10:43:37;;;;;;;8.63;3.22;;;19.50;50.50;;;;;;9178316;19;20488;-71
2022/04/24 10:46:44;;;;;;;9.85;3.35;;;19.50;50.20;;;;;;9176345;19;20476;-71
2022/04/24 10:49:49;;;;;;;8.60;3.10;;;19.50;50.30;;;;;;9178964;19;20030;-69
2022/04/24 10:52:57;;;;;;;6.43;3.50;;;19.60;50.30;;;;;;9176337;19;20021;-71
2022/04/24 10:56:06;;;;;;;6.88;3.35;;;19.60;50.10;;;;;;9178576;19;20021;-70
2022/04/24 10:59:15;;;;;;;5.88;3.30;;;19.70;49.90;;;;;;9178741;19;20014;-71
2022/04/24 11:02:23;;;;;;;7.25;3.25;;;19.70;49.70;;;;;;9178663;19;20025;-71
2022/04/24 11:05:28;;;;;;;9.90;3.65;;;19.60;49.60;;;;;;9179130;19;20011;-70
2022/04/24 11:08:43;;;;;;;5.05;2.97;;;19.70;49.70;;;;;;9174400;19;20356;-69
2022/04/24 11:11:49;;;;;;;4.53;2.90;;;19.70;49.40;;;;;;9179278;19;20014;-74
2022/04/24 11:14:57;;;;;;;11.73;2.92;;;19.70;49.60;;;;;;9179170;19;20018;-73
2022/04/24 11:18:02;;;;;;;7.85;3.13;;;19.70;49.50;;;;;;9179114;19;20472;-73
2022/04/24 11:21:08;;;;;;;5.50;2.72;;;19.80;49.40;;;;;;9181430;19;20025;-72
2022/04/24 11:24:14;;;;;;;5.03;2.75;;;19.90;49.30;;;;;;9178560;19;20019;-73
2022/04/24 11:27:19;;;;;;;5.85;2.85;;;20.00;49.20;;;;;;9176139;19;20018;-71
2022/04/24 11:30:31;;;;;;;8.13;2.70;;;20.00;49.00;;;;;;9176284;19;20021;-72
2022/04/24 11:33:37;;;;;;;4.13;2.53;;;20.10;48.70;;;;;;9177370;19;20007;-71
2022/04/24 11:36:43;;;;;;;4.18;3.03;;;20.20;48.70;;;;;;9175715;19;20019;-71
2022/04/24 11:39:48;;;;;;;6.63;2.55;;;20.20;48.50;;;;;;9176720;19;20025;-71
2022/04/24 11:42:53;;;;;;;8.18;2.58;;;20.30;48.40;;;;;;9176023;19;20018;-71
2022/04/24 11:52:44;;;;;;;5.15;2.47;;;20.40;48.00;;;;;;9174990;19;20504;-70
2022/04/24 11:56:04;;;;;;;6.35;2.75;;;20.50;47.90;;;;;;9176760;19;20014;-71
2022/04/24 11:59:14;;;;;;;4.03;2.35;;;20.50;47.60;;;;;;9175642;19;20057;-72
2022/04/24 12:02:27;;;;;;;10.35;2.47;;;;;;;;;;9175506;19;20019;-70
2022/04/24 12:05:33;;;;;;;5.93;2.40;;;20.30;59.30;;;;;;9174214;19;20484;-69
2022/04/24 12:08:45;;;;;;;4.13;2.67;;;20.50;56.90;;;;;;9170571;19;20022;-70
2022/04/24 12:11:50;;;;;;;4.20;2.40;;;20.40;59.00;;;;;;9176129;19;20368;-70
2022/04/24 12:14:55;;;;;;;5.30;2.95;;;20.50;62.80;;;;;;9177600;19;20021;-70
2022/04/24 12:18:03;;;;;;;5.57;2.80;;;20.30;61.50;;;;;;9172964;19;20376;-71
2022/04/24 12:21:21;;;;;;;6.45;3.03;;;20.40;51.20;;;;;;9173801;19;20018;-70
2022/04/24 12:24:26;;;;;;;2.97;2.53;;;20.30;46.70;;;;;;9176566;19;20017;-70
2022/04/24 12:27:30;;;;;;;5.68;2.60;;;20.30;46.90;;;;;;9183417;19;20491;-70
2022/04/24 12:30:36;;;;;;;6.25;3.10;;;20.30;46.80;;;;;;9182928;19;20052;-71
2022/04/24 12:33:51;;;;;;;6.43;2.22;;;20.30;47.40;;;;;;9184350;19;20017;-70
2022/04/24 12:36:56;;;;;;;7.38;2.92;;;20.30;46.40;;;;;;9184640;19;20082;-71
2022/04/24 12:40:01;;;;;;;3.17;2.35;;;20.30;46.60;;;;;;9182748;19;20026;-70
2022/04/24 12:43:06;;;;;;;4.13;2.42;;;20.40;46.60;;;;;;9180809;19;20111;-70
2022/04/24 12:46:13;;;;;;;6.57;2.47;;;20.40;46.40;;;;;;9181639;19;20677;-70
2022/04/24 12:49:29;;;;;;;5.38;2.38;;;20.50;46.40;;;;;;9183060;19;20010;-69
2022/04/24 12:52:34;;;;;;;5.28;2.30;;;20.50;46.10;;;;;;9182194;19;20503;-71
2022/04/24 12:55:39;;;;;;;5.60;2.33;;;20.50;46.30;;;;;;9183468;19;20468;-68
2022/04/24 12:58:44;;;;;;;4.20;2.95;;;20.50;46.30;;;;;;9179743;19;20015;-70
2022/04/24 13:01:52;;;;;;;6.65;2.60;;;20.40;46.20;;;;;;9182868;19;20357;-70
2022/04/24 13:05:00;;;;;;;6.38;2.97;;;20.40;46.10;;;;;;9181801;19;20014;-70
2022/04/24 13:08:07;;;;;;;10.20;2.55;;;20.40;46.00;;;;;;9180864;19;20010;-70
2022/04/24 13:11:12;;;;;;;6.45;2.97;;;20.30;46.10;;;;;;9180115;19;20018;-70
2022/04/24 13:14:17;;;;;;;4.15;2.85;;;20.20;46.10;;;;;;9182358;19;20021;-70
2022/04/24 13:20:45;;;;;;;4.25;2.50;;;20.10;46.20;;;;;;9181155;19;20021;-71
2022/04/24 13:23:52;;;;;;;4.55;2.90;;;20.00;46.10;;;;;;9183911;19;20019;-71
2022/04/24 13:26:57;;;;;;;4.90;3.35;;;20.00;46.30;;;;;;9182922;19;20011;-71
2022/04/24 13:30:03;;;;;;;6.88;2.60;;;19.90;46.30;;;;;;9183206;19;20017;-72
2022/04/24 13:33:08;;;;;;;7.57;2.80;;;19.90;46.50;;;;;;9182158;19;20022;-71
2022/04/24 13:36:16;;;;;;;5.63;2.70;;;19.90;46.40;;;;;;9180151;19;20024;-71
2022/04/24 13:39:19;;;;;;;6.47;2.83;;;19.90;46.30;;;;;;9176085;19;20061;-71
2022/04/24 13:42:25;;;;;;;8.60;2.90;;;20.00;46.20;;;;;;9178432;19;20011;-70
2022/04/24 13:45:30;;;;;;;6.15;2.75;;;20.00;46.20;;;;;;9179209;19;20490;-70
2022/04/24 13:48:55;;;;;;;4.47;2.70;;;20.00;46.10;;;;;;9173581;19;20064;-70
2022/04/24 13:52:03;;;;;;;6.28;2.70;;;19.90;46.00;;;;;;9177785;19;20025;-70
2022/04/24 13:55:09;;;;;;;7.55;2.65;;;19.90;46.00;;;;;;9177637;19;20015;-70
2022/04/24 13:58:16;;;;;;;5.20;2.85;;;19.80;46.00;;;;;;9179812;19;20029;-70
2022/04/24 14:01:21;;;;;;;4.63;2.85;;;19.80;45.90;;;;;;9175634;19;20021;-72
2022/04/24 14:04:26;;;;;;;4.38;2.70;;;19.80;45.90;;;;;;9175830;19;20029;-72
2022/04/24 14:07:34;;;;;;;4.40;2.42;;;19.70;45.90;;;;;;9178766;19;20018;-72
2022/04/24 14:10:39;;;;;;;15.15;2.72;;;19.70;45.80;;;;;;9179754;19;20011;-72
2022/04/24 14:13:44;;;;;;;9.15;3.20;;;19.60;45.80;;;;;;9178156;19;20761;-72
2022/04/24 14:16:49;;;;;;;6.40;2.70;;;19.50;45.80;;;;;;9179082;19;20356;-71
2022/04/24 14:19:54;;;;;;;5.63;2.55;;;19.40;45.70;;;;;;9176549;19;20613;-71
2022/04/24 14:23:04;;;;;;;7.97;2.85;;;19.30;45.70;;;;;;9181537;19;20021;-71
2022/04/24 14:26:09;;;;;;;4.95;2.78;;;19.20;45.70;;;;;;9182066;19;20011;-71
2022/04/24 14:29:14;;;;;;;3.92;2.25;;;19.20;45.90;;;;;;9178882;19;20023;-70
2022/04/24 14:32:20;;;;;;;8.40;2.70;;;19.10;46.50;;;;;;9179314;19;20011;-69
2022/04/24 14:35:27;;;;;;;3.85;2.38;;;19.10;45.90;;;;;;9180795;19;20022;-72
2022/04/24 14:38:35;;;;;;;5.15;2.83;;;19.00;46.00;;;;;;9178957;19;20014;-70
2022/04/24 14:41:40;;;;;;;8.55;2.53;;;18.90;46.00;;;;;;9181477;19;20018;-71
2022/04/24 14:44:45;;;;;;;6.20;2.40;;;18.80;46.10;;;;;;9179932;19;20491;-71
2022/04/24 14:57:56;;;;;;;7.60;2.88;;;18.50;46.10;;;;;;9178180;19;20011;-71
2022/04/24 15:01:04;;;;;;;8.25;2.90;;;18.40;46.30;;;;;;9178742;19;20831;-71
2022/04/24 15:04:09;;;;;;;4.93;2.40;;;18.30;46.20;;;;;;9178530;19;20034;-70
2022/04/24 15:07:14;;;;;;;3.97;2.85;;;18.20;46.30;;;;;;9177462;19;20014;-72
2022/04/24 15:10:22;;;;;;;7.85;3.53;;;18.20;46.30;;;;;;9172528;19;20022;-71
2022/04/24 15:13:27;;;;;;;4.20;2.40;;;18.10;46.20;;;;;;9178127;19;20030;-71
2022/04/24 15:16:32;;;;;;;4.63;2.92;;;18.10;46.30;;;;;;9178395;19;20014;-71
2022/04/24 15:19:40;;;;;;;7.90;2.60;;;18.10;46.30;;;;;;9175363;19;20486;-71
2022/04/24 15:22:46;;;;;;;6.15;2.42;;;18.10;46.40;;;;;;9176451;19;20757;-71
2022/04/24 15:25:53;;;;;;;6.88;2.50;;;18.10;46.40;;;;;;9179475;19;20054;-71
2022/04/24 15:28:58;;;;;;;6.15;2.33;;;18.10;46.30;;;;;;9176285;19;20017;-71
2022/04/24 15:32:03;;;;;;;7.78;2.53;;;18.20;46.50;;;;;;9175908;19;20018;-71
2022/04/24 15:35:09;;;;;;;8.70;2.40;;;18.20;46.50;;;;;;9177005;19;20030;-71
2022/04/24 15:38:15;;;;;;;5.43;2.28;;;18.20;46.50;;;;;;9173522;19;20122;-71
2022/04/24 15:41:23;;;;;;;4.57;2.53;;;18.10;46.40;;;;;;9179751;19;20011;-72
2022/04/24 15:45:10;;;;;;;7.63;2.58;;;18.10;46.40;;;;;;9183794;19;20022;-72
2022/04/24 15:47:53;;;;;;;3.60;2.25;;;18.10;46.50;;;;;;9182326;19;20483;-71
2022/04/24 15:50:59;;;;;;;2.67;2.13;;;18.00;46.50;;;;;;9182853;19;20011;-72
2022/04/24 15:54:05;;;;;;;9.55;3.15;;;18.10;47.30;;;;;;9182054;19;20014;-72
2022/04/24 15:57:12;;;;;;;8.65;2.53;;;18.00;46.60;;;;;;9183808;19;20479;-71
2022/04/24 16:00:18;;;;;;;8.70;2.55;;;18.00;46.60;;;;;;9180029;19;20423;-71
2022/04/24 16:03:23;;;;;;;6.97;2.22;;;18.00;46.70;;;;;;9180225;19;20030;-71
2022/04/24 16:06:29;;;;;;;4.93;3.13;;;18.00;46.70;;;;;;9178198;19;20368;-70
2022/04/24 16:09:34;;;;;;;5.55;2.53;;;17.90;46.70;;;;;;9172388;19;20349;-71
2022/04/24 16:12:45;;;;;;;5.68;2.13;;;17.90;46.70;;;;;;9180091;19;20025;-73
2022/04/24 16:15:50;;;;;;;3.38;2.28;;;18.10;56.00;;;;;;9180231;19;20022;-71
2022/04/24 16:18:55;;;;;;;4.95;2.53;;;17.90;55.00;;;;;;9180416;19;20019;-72
2022/04/24 16:22:00;;;;;;;3.72;2.78;;;17.90;49.20;;;;;;9179316;19;20026;-72
2022/04/24 16:25:05;;;;;;;7.57;2.35;;;17.80;47.00;;;;;;9179474;19;20019;-72
2022/04/24 16:28:13;;;;;;;4.22;2.33;;;17.70;46.80;;;;;;9181151;19;20061;-72
2022/04/24 16:31:18;;;;;;;5.05;2.65;;;17.70;46.70;;;;;;9180769;19;20015;-71
2022/04/24 16:34:25;;;;;;;3.78;2.50;;;17.70;46.80;;;;;;9181559;19;20015;-71